Terminal Aerodrome Forecast
Issued by NWS

Home | Current Version | Previous Version | Text Only | Print | Product List | Glossary On
Versions: 1 2 3 4 5 6 7 8 9 10 11 12 13 14 15 16
000
FTAK31 PAJN 162300
TAFAPG
TAF
PAPG 162320Z 1700/1724 06004KT P6SM SCT035 BKN200
     FM170300 VRB02KT P6SM VCSH OVC060
     FM170900 00000KT 1/2SM FG BKN002
     FM171500 VRB02KT 1SM BR VCSH BKN005
     FM172000 04003KT P6SM VCFG SCT005 BKN050
      AMD LTD TO CLD VIS AND WIND 1706/1715=

USA.gov is the U.S. government's official web portal to all federal, state and local government web resources and services.